createdAt,value
2023-04-18T00:03:59.855Z,6.11
2023-04-18T00:09:01.669Z,5.90
2023-04-18T00:14:12.300Z,5.84
2023-04-18T00:19:18.366Z,5.70
2023-04-18T00:24:22.633Z,5.84
2023-04-18T00:29:24.278Z,5.97
2023-04-18T00:34:29.164Z,5.86
2023-04-18T00:39:31.290Z,5.61
2023-04-18T00:44:33.056Z,5.45
2023-04-18T00:49:38.498Z,5.44
2023-04-18T00:54:40.726Z,5.49
2023-04-18T00:59:47.243Z,5.32
2023-04-18T01:04:50.192Z,5.48
2023-04-18T01:09:52.839Z,5.63
2023-04-18T01:14:57.233Z,5.63
2023-04-18T01:20:12.945Z,5.38
2023-04-18T01:25:32.253Z,5.33
2023-04-18T01:30:34.377Z,5.21
2023-04-18T01:35:41.511Z,5.14
2023-04-18T01:40:44.840Z,5.22
2023-04-18T01:45:46.565Z,5.33
2023-04-18T01:50:50.113Z,5.41
2023-04-18T01:56:03.182Z,5.34
2023-04-18T02:01:05.039Z,5.29
2023-04-18T02:06:07.397Z,5.17
2023-04-18T02:11:22.159Z,5.10
2023-04-18T02:16:24.107Z,4.96
2023-04-18T02:21:32.265Z,4.91
2023-04-18T02:26:35.229Z,4.80
2023-04-18T02:31:44.214Z,4.72
2023-04-18T02:36:57.658Z,4.67
2023-04-18T02:42:00.664Z,4.48
2023-04-18T02:47:02.306Z,4.34
2023-04-18T02:52:04.650Z,4.22
2023-04-18T02:57:10.645Z,4.26
2023-04-18T03:02:15.145Z,4.28
2023-04-18T03:07:24.223Z,4.00
2023-04-18T03:12:31.866Z,3.89
2023-04-18T03:17:34.508Z,3.80
2023-04-18T03:22:37.945Z,3.81
2023-04-18T03:27:41.208Z,3.75
2023-04-18T03:32:51.032Z,3.83
2023-04-18T03:37:56.290Z,3.91
2023-04-18T03:43:08.510Z,4.08
2023-04-18T03:48:12.241Z,4.22
2023-04-18T03:53:17.765Z,4.39
2023-04-18T03:58:22.090Z,4.27
2023-04-18T04:03:26.020Z,4.10
2023-04-18T04:08:29.206Z,4.01
2023-04-18T04:13:34.257Z,3.92
2023-04-18T04:18:36.332Z,3.93
2023-04-18T04:23:38.149Z,3.93
2023-04-18T04:28:41.589Z,3.91
2023-04-18T04:33:46.250Z,3.95
2023-04-18T04:38:54.752Z,4.05
2023-04-18T04:44:09.273Z,4.15
2023-04-18T04:49:15.935Z,4.24
2023-04-18T04:54:19.734Z,4.31
2023-04-18T04:59:26.839Z,4.48
2023-04-18T05:04:29.165Z,4.66
2023-04-18T05:09:30.919Z,4.95
2023-04-18T05:14:33.908Z,5.22
2023-04-18T05:19:35.527Z,5.34
2023-04-18T05:24:39.873Z,5.53
2023-04-18T05:29:50.382Z,5.60
2023-04-18T05:34:54.588Z,5.78
2023-04-18T05:39:56.832Z,5.96
2023-04-18T05:45:08.280Z,5.94
2023-04-18T05:50:13.055Z,6.10
2023-04-18T05:55:14.647Z,6.17
2023-04-18T06:00:20.557Z,6.36
2023-04-18T06:05:24.606Z,6.50
2023-04-18T06:10:26.468Z,6.72
2023-04-18T06:15:32.352Z,6.99
2023-04-18T06:20:37.665Z,7.21
2023-04-18T06:25:42.457Z,7.33
2023-04-18T06:30:49.862Z,7.38
2023-04-18T06:35:51.501Z,7.32
2023-04-18T06:40:53.422Z,7.33
2023-04-18T06:45:56.568Z,7.34
2023-04-18T06:50:58.338Z,7.44
2023-04-18T06:56:02.204Z,7.39
2023-04-18T07:01:07.624Z,7.39
2023-04-18T07:06:11.552Z,7.42
2023-04-18T07:11:13.291Z,7.42
2023-04-18T07:16:21.630Z,7.39
2023-04-18T07:21:23.126Z,7.33
2023-04-18T07:26:29.855Z,7.34
2023-04-18T07:31:33.006Z,7.49
2023-04-18T07:36:34.763Z,7.53
2023-04-18T07:41:39.023Z,7.63
2023-04-18T07:46:42.179Z,7.69
2023-04-18T07:51:43.794Z,7.90
2023-04-18T07:56:45.442Z,7.94
2023-04-18T08:01:51.646Z,8.09
2023-04-18T08:07:02.123Z,8.26
2023-04-18T08:12:04.183Z,8.31
2023-04-18T08:17:12.544Z,8.59
2023-04-18T08:22:14.261Z,8.40
2023-04-18T08:27:15.922Z,8.55
2023-04-18T08:32:19.151Z,8.64
2023-04-18T08:37:20.885Z,8.95
2023-04-18T08:42:23.497Z,8.98
2023-04-18T08:47:28.803Z,9.02
2023-04-18T08:52:32.348Z,9.03
2023-04-18T08:57:36.980Z,9.03
2023-04-18T09:02:41.346Z,9.40
2023-04-18T09:07:43.185Z,9.80
2023-04-18T09:12:50.247Z,10.01
2023-04-18T09:17:54.937Z,10.89
2023-04-18T09:22:58.932Z,11.29
2023-04-18T09:28:03.561Z,12.21
2023-04-18T09:33:08.471Z,11.73
2023-04-18T09:38:10.554Z,12.43
2023-04-18T09:43:21.498Z,12.66
2023-04-18T09:48:27.941Z,12.92
2023-04-18T09:53:32.164Z,13.02
2023-04-18T09:58:41.220Z,12.56
2023-04-18T10:03:47.859Z,13.02
2023-04-18T10:08:51.879Z,13.85
2023-04-18T10:13:55.988Z,13.00
2023-04-18T10:19:24.870Z,13.04
2023-04-18T10:24:48.724Z,13.66
2023-04-18T10:29:51.890Z,13.37
2023-04-18T10:34:58.413Z,13.86
2023-04-18T10:40:01.029Z,14.93
2023-04-18T10:45:18.758Z,15.12
2023-04-18T10:50:22.040Z,14.39
2023-04-18T10:55:29.637Z,13.45
2023-04-18T11:00:33.297Z,13.40
2023-04-18T11:05:39.206Z,13.38
2023-04-18T11:10:41.456Z,13.60
2023-04-18T11:15:43.102Z,13.54
2023-04-18T11:20:50.820Z,14.04
2023-04-18T11:25:54.705Z,14.13
2023-04-18T11:31:00.671Z,14.10
2023-04-18T11:36:12.325Z,14.17
2023-04-18T11:41:15.601Z,13.93
2023-04-18T11:46:22.007Z,14.11
2023-04-18T11:51:36.123Z,14.43
2023-04-18T11:56:48.181Z,14.69
2023-04-18T12:02:15.573Z,14.67
2023-04-18T12:07:43.320Z,14.69
2023-04-18T12:12:50.999Z,14.29
2023-04-18T12:17:56.681Z,14.14
2023-04-18T12:23:03.849Z,14.50
2023-04-18T12:28:19.050Z,14.43
2023-04-18T12:33:23.866Z,15.00
2023-04-18T12:38:37.466Z,14.50
2023-04-18T12:43:39.393Z,13.82
2023-04-18T12:48:46.778Z,13.56
2023-04-18T12:53:52.712Z,13.53
2023-04-18T12:58:57.171Z,13.61
2023-04-18T13:04:10.633Z,13.49
2023-04-18T13:09:15.264Z,13.35
2023-04-18T13:14:19.933Z,13.24
2023-04-18T13:19:21.663Z,13.57
2023-04-18T13:24:27.035Z,13.95
2023-04-18T13:29:28.778Z,13.90
2023-04-18T13:34:34.181Z,14.13
2023-04-18T13:39:37.257Z,14.71
2023-04-18T13:44:43.905Z,14.86
2023-04-18T13:49:48.131Z,14.74
2023-04-18T13:54:56.584Z,14.69
2023-04-18T14:00:00.760Z,14.19
2023-04-18T14:05:02.762Z,13.86
2023-04-18T14:10:07.929Z,13.68
2023-04-18T14:15:10.537Z,13.80
2023-04-18T14:20:16.844Z,14.06
2023-04-18T14:25:20.218Z,14.25
2023-04-18T14:30:23.551Z,14.45
2023-04-18T14:35:27.957Z,14.43
2023-04-18T14:40:33.634Z,14.44
2023-04-18T14:45:39.939Z,14.25
2023-04-18T14:50:46.306Z,13.98
2023-04-18T14:55:56.804Z,13.78
2023-04-18T15:00:58.514Z,13.79
2023-04-18T15:06:08.109Z,13.75
2023-04-18T15:11:13.368Z,13.76
2023-04-18T15:16:22.326Z,13.63
2023-04-18T15:21:27.515Z,13.54
2023-04-18T15:26:32.934Z,13.71
2023-04-18T15:31:35.839Z,13.66
2023-04-18T15:36:39.994Z,13.61
2023-04-18T15:41:45.974Z,13.72
2023-04-18T15:46:57.212Z,13.84
2023-04-18T15:51:58.912Z,13.89
2023-04-18T15:57:03.791Z,13.55
2023-04-18T16:02:06.757Z,13.47
2023-04-18T16:07:10.610Z,13.87
2023-04-18T16:12:13.592Z,13.57
2023-04-18T16:17:20.423Z,13.36
2023-04-18T16:22:22.137Z,13.15
2023-04-18T16:27:28.322Z,13.09
2023-04-18T16:32:34.713Z,13.06
2023-04-18T16:37:43.334Z,12.99
2023-04-18T16:42:48.569Z,12.90
2023-04-18T16:47:53.354Z,12.92
2023-04-18T16:52:55.090Z,12.71
2023-04-18T16:57:58.111Z,12.48
2023-04-18T17:03:05.296Z,12.30
2023-04-18T17:08:12.275Z,12.23
2023-04-18T17:13:18.255Z,12.15
2023-04-18T17:18:19.931Z,12.06
2023-04-18T17:23:21.772Z,11.99
2023-04-18T17:28:29.782Z,11.92
2023-04-18T17:33:34.542Z,11.92
2023-04-18T17:38:36.232Z,11.86
2023-04-18T17:43:39.540Z,11.72
2023-04-18T17:48:41.264Z,11.62
2023-04-18T17:53:48.271Z,11.55
2023-04-18T17:58:56.466Z,11.45
2023-04-18T18:03:58.845Z,11.36
2023-04-18T18:09:03.641Z,11.34
2023-04-18T18:14:14.357Z,11.27
2023-04-18T18:19:17.950Z,11.19
2023-04-18T18:24:19.681Z,11.08
2023-04-18T18:29:30.713Z,11.08
2023-04-18T18:34:32.371Z,10.97
2023-04-18T18:39:34.159Z,10.90
2023-04-18T18:44:48.280Z,10.88
2023-04-18T18:49:49.936Z,10.83
2023-04-18T18:54:52.809Z,10.79
2023-04-18T18:59:58.805Z,10.74
2023-04-18T19:05:00.734Z,10.74
2023-04-18T19:10:05.603Z,10.72
2023-04-18T19:15:10.066Z,10.66
2023-04-18T19:20:11.813Z,10.70
2023-04-18T19:25:15.952Z,10.65
2023-04-18T19:30:19.374Z,10.67
2023-04-18T19:35:31.125Z,10.61
2023-04-18T19:40:33.370Z,10.59
2023-04-18T19:45:45.040Z,10.56
2023-04-18T19:50:50.568Z,10.50
2023-04-18T19:55:56.569Z,10.50
2023-04-18T20:01:03.166Z,10.46
2023-04-18T20:06:06.091Z,10.47
2023-04-18T20:11:12.053Z,10.41
2023-04-18T20:16:21.305Z,10.38
2023-04-18T20:21:25.717Z,10.41
2023-04-18T20:26:30.000Z,10.37
2023-04-18T20:31:36.018Z,10.23
2023-04-18T20:36:37.824Z,10.35
2023-04-18T20:41:42.805Z,10.33
2023-04-18T20:46:45.884Z,10.27
2023-04-18T20:51:49.681Z,10.25
2023-04-18T20:56:58.425Z,10.31
2023-04-18T21:02:01.662Z,10.29
2023-04-18T21:07:04.169Z,10.26
2023-04-18T21:12:08.725Z,10.23
2023-04-18T21:17:11.816Z,10.27
2023-04-18T21:22:18.663Z,10.19
2023-04-18T21:27:20.319Z,10.15
2023-04-18T21:32:26.166Z,10.13
2023-04-18T21:37:28.172Z,10.06
2023-04-18T21:42:29.946Z,9.98
2023-04-18T21:47:33.267Z,9.92
2023-04-18T21:52:37.627Z,9.92
2023-04-18T21:57:39.232Z,9.85
2023-04-18T22:02:42.445Z,9.78
2023-04-18T22:07:58.244Z,9.74
2023-04-18T22:13:00.499Z,9.67
2023-04-18T22:18:08.089Z,9.71
2023-04-18T22:23:10.031Z,9.72
2023-04-18T22:28:11.714Z,9.73
2023-04-18T22:33:17.194Z,9.73
2023-04-18T22:38:30.766Z,9.73
2023-04-18T22:43:50.595Z,9.75
2023-04-18T22:48:53.581Z,9.81
2023-04-18T22:53:58.164Z,9.76
2023-04-18T22:59:02.474Z,9.75
2023-04-18T23:04:05.949Z,9.77
2023-04-18T23:09:07.784Z,9.73
2023-04-18T23:14:12.100Z,9.76
2023-04-18T23:19:20.936Z,9.78
2023-04-18T23:24:22.583Z,9.72
2023-04-18T23:29:36.590Z,9.67
2023-04-18T23:34:39.858Z,9.59
2023-04-18T23:39:41.497Z,9.43
2023-04-18T23:44:58.789Z,9.44
2023-04-18T23:50:04.323Z,9.44
2023-04-18T23:55:06.729Z,9.45
